sensor_id;sensor_type;location;lat;lon;timestamp;P1;durP1;ratioP1;P2;durP2;ratioP2
68744;SDS011;73143;45.456;11.064;2023-11-19T19:51:32;27.80;;;20.20;;
68744;SDS011;73143;45.456;11.064;2023-11-19T19:54:10;27.40;;;20.00;;
68744;SDS011;73143;45.456;11.064;2023-11-19T19:56:47;29.90;;;19.80;;
68744;SDS011;73143;45.456;11.064;2023-11-19T19:59:24;29.20;;;21.10;;
68744;SDS011;73143;45.456;11.064;2023-11-19T20:02:01;26.40;;;21.20;;
68744;SDS011;73143;45.456;11.064;2023-11-19T20:04:38;27.10;;;19.30;;
68744;SDS011;73143;45.456;11.064;2023-11-19T20:07:21;28.50;;;19.00;;
68744;SDS011;73143;45.456;11.064;2023-11-19T20:09:58;24.00;;;19.60;;
68744;SDS011;73143;45.456;11.064;2023-11-19T20:12:35;27.30;;;19.10;;
68744;SDS011;73143;45.456;11.064;2023-11-19T20:15:12;24.30;;;18.80;;
68744;SDS011;73143;45.456;11.064;2023-11-19T20:17:52;30.40;;;19.40;;
68744;SDS011;73143;45.456;11.064;2023-11-19T20:20:30;26.00;;;19.30;;
68744;SDS011;73143;45.456;11.064;2023-11-19T20:23:08;27.20;;;18.70;;
68744;SDS011;73143;45.456;11.064;2023-11-19T20:25:45;28.50;;;18.70;;
68744;SDS011;73143;45.456;11.064;2023-11-19T20:28:22;24.50;;;19.10;;
68744;SDS011;73143;45.456;11.064;2023-11-19T20:30:59;25.50;;;18.90;;
68744;SDS011;73143;45.456;11.064;2023-11-19T20:33:37;26.10;;;19.00;;
68744;SDS011;73143;45.456;11.064;2023-11-19T20:36:14;25.70;;;18.50;;
68744;SDS011;73143;45.456;11.064;2023-11-19T20:38:51;26.60;;;18.70;;
68744;SDS011;73143;45.456;11.064;2023-11-19T20:41:27;25.30;;;18.80;;
68744;SDS011;73143;45.456;11.064;2023-11-19T20:44:05;30.20;;;19.80;;
68744;SDS011;73143;45.456;11.064;2023-11-19T20:46:43;23.70;;;18.00;;
68744;SDS011;73143;45.456;11.064;2023-11-19T20:49:21;25.90;;;18.50;;
68744;SDS011;73143;45.456;11.064;2023-11-19T20:51:58;25.20;;;18.60;;
68744;SDS011;73143;45.456;11.064;2023-11-19T20:54:35;24.60;;;18.40;;
68744;SDS011;73143;45.456;11.064;2023-11-19T20:57:13;24.50;;;18.20;;
68744;SDS011;73143;45.456;11.064;2023-11-19T20:59:49;24.60;;;18.50;;
68744;SDS011;73143;45.456;11.064;2023-11-19T21:02:27;23.10;;;17.90;;
68744;SDS011;73143;45.456;11.064;2023-11-19T21:05:07;24.10;;;18.10;;
68744;SDS011;73143;45.456;11.064;2023-11-19T21:07:49;24.10;;;17.80;;
68744;SDS011;73143;45.456;11.064;2023-11-19T21:10:27;24.60;;;17.30;;
68744;SDS011;73143;45.456;11.064;2023-11-19T21:13:04;25.90;;;18.30;;
68744;SDS011;73143;45.456;11.064;2023-11-19T21:15:40;25.50;;;18.40;;
68744;SDS011;73143;45.456;11.064;2023-11-19T21:18:28;25.60;;;19.10;;
68744;SDS011;73143;45.456;11.064;2023-11-19T21:21:07;24.20;;;18.10;;
68744;SDS011;73143;45.456;11.064;2023-11-19T21:23:44;23.80;;;18.80;;
68744;SDS011;73143;45.456;11.064;2023-11-19T21:26:21;24.10;;;18.20;;
68744;SDS011;73143;45.456;11.064;2023-11-19T21:28:59;24.90;;;18.10;;
68744;SDS011;73143;45.456;11.064;2023-11-19T21:31:37;25.20;;;18.00;;
68744;SDS011;73143;45.456;11.064;2023-11-19T21:34:17;23.10;;;18.00;;
68744;SDS011;73143;45.456;11.064;2023-11-19T21:36:54;20.00;;;16.60;;
68744;SDS011;73143;45.456;11.064;2023-11-19T21:39:32;25.20;;;18.20;;
68744;SDS011;73143;45.456;11.064;2023-11-19T21:42:10;23.40;;;17.20;;
68744;SDS011;73143;45.456;11.064;2023-11-19T21:44:47;22.40;;;17.60;;
68744;SDS011;73143;45.456;11.064;2023-11-19T21:47:25;23.90;;;17.40;;
68744;SDS011;73143;45.456;11.064;2023-11-19T21:50:01;23.10;;;17.20;;
68744;SDS011;73143;45.456;11.064;2023-11-19T21:52:39;24.60;;;17.50;;
68744;SDS011;73143;45.456;11.064;2023-11-19T21:55:17;23.20;;;17.10;;
68744;SDS011;73143;45.456;11.064;2023-11-19T21:57:55;25.20;;;16.50;;
68744;SDS011;73143;45.456;11.064;2023-11-19T22:00:33;22.50;;;17.00;;
68744;SDS011;73143;45.456;11.064;2023-11-19T22:03:10;21.30;;;16.20;;
68744;SDS011;73143;45.456;11.064;2023-11-19T22:05:49;22.30;;;17.00;;
68744;SDS011;73143;45.456;11.064;2023-11-19T22:08:26;23.70;;;17.30;;
68744;SDS011;73143;45.456;11.064;2023-11-19T22:11:03;23.40;;;17.20;;
68744;SDS011;73143;45.456;11.064;2023-11-19T22:13:42;24.20;;;17.40;;
68744;SDS011;73143;45.456;11.064;2023-11-19T22:16:19;23.60;;;16.80;;
68744;SDS011;73143;45.456;11.064;2023-11-19T22:18:57;22.00;;;17.50;;
68744;SDS011;73143;45.456;11.064;2023-11-19T22:21:35;22.40;;;16.10;;
68744;SDS011;73143;45.456;11.064;2023-11-19T22:24:13;23.70;;;16.30;;
68744;SDS011;73143;45.456;11.064;2023-11-19T22:26:50;22.30;;;16.40;;
68744;SDS011;73143;45.456;11.064;2023-11-19T22:29:27;26.00;;;16.80;;
68744;SDS011;73143;45.456;11.064;2023-11-19T22:32:06;23.30;;;16.40;;
68744;SDS011;73143;45.456;11.064;2023-11-19T22:35:02;21.20;;;16.50;;
68744;SDS011;73143;45.456;11.064;2023-11-19T22:37:40;20.40;;;15.80;;
68744;SDS011;73143;45.456;11.064;2023-11-19T22:40:17;22.80;;;17.20;;
68744;SDS011;73143;45.456;11.064;2023-11-19T22:42:55;21.10;;;16.90;;
68744;SDS011;73143;45.456;11.064;2023-11-19T22:45:32;22.20;;;17.00;;
68744;SDS011;73143;45.456;11.064;2023-11-19T22:48:10;21.70;;;16.50;;
68744;SDS011;73143;45.456;11.064;2023-11-19T22:50:47;23.40;;;17.20;;
68744;SDS011;73143;45.456;11.064;2023-11-19T22:53:25;22.50;;;16.00;;
68744;SDS011;73143;45.456;11.064;2023-11-19T22:56:03;21.50;;;16.30;;
68744;SDS011;73143;45.456;11.064;2023-11-19T22:58:48;21.10;;;16.40;;
68744;SDS011;73143;45.456;11.064;2023-11-19T23:01:26;20.80;;;16.70;;
68744;SDS011;73143;45.456;11.064;2023-11-19T23:04:04;22.70;;;16.90;;
68744;SDS011;73143;45.456;11.064;2023-11-19T23:06:42;20.70;;;15.60;;
68744;SDS011;73143;45.456;11.064;2023-11-19T23:09:21;20.90;;;16.50;;
68744;SDS011;73143;45.456;11.064;2023-11-19T23:12:00;22.40;;;17.00;;
68744;SDS011;73143;45.456;11.064;2023-11-19T23:14:38;22.30;;;16.30;;
68744;SDS011;73143;45.456;11.064;2023-11-19T23:17:15;21.60;;;17.20;;
68744;SDS011;73143;45.456;11.064;2023-11-19T23:19:52;22.20;;;17.20;;
68744;SDS011;73143;45.456;11.064;2023-11-19T23:22:40;21.30;;;17.30;;
68744;SDS011;73143;45.456;11.064;2023-11-19T23:25:20;25.10;;;17.80;;
68744;SDS011;73143;45.456;11.064;2023-11-19T23:27:59;25.30;;;19.20;;
68744;SDS011;73143;45.456;11.064;2023-11-19T23:30:36;26.90;;;19.40;;
68744;SDS011;73143;45.456;11.064;2023-11-19T23:33:14;26.10;;;19.40;;
68744;SDS011;73143;45.456;11.064;2023-11-19T23:35:52;24.80;;;19.40;;
68744;SDS011;73143;45.456;11.064;2023-11-19T23:38:29;25.90;;;20.40;;
68744;SDS011;73143;45.456;11.064;2023-11-19T23:41:09;25.30;;;20.00;;
68744;SDS011;73143;45.456;11.064;2023-11-19T23:43:46;28.90;;;21.90;;
68744;SDS011;73143;45.456;11.064;2023-11-19T23:46:23;32.90;;;23.70;;
68744;SDS011;73143;45.456;11.064;2023-11-19T23:49:00;27.70;;;21.90;;
68744;SDS011;73143;45.456;11.064;2023-11-19T23:51:41;31.00;;;23.80;;
68744;SDS011;73143;45.456;11.064;2023-11-19T23:54:18;29.30;;;23.00;;
68744;SDS011;73143;45.456;11.064;2023-11-19T23:56:54;28.70;;;21.80;;
68744;SDS011;73143;45.456;11.064;2023-11-19T23:59:32;29.40;;;21.50;;
